createdAt,value
2018-08-11T00:04:30.292Z,18.20
2018-08-11T00:09:33.904Z,18.20
2018-08-11T00:14:37.495Z,18.10
2018-08-11T00:19:41.016Z,18.00
2018-08-11T00:24:45.522Z,17.80
2018-08-11T00:29:48.974Z,17.80
2018-08-11T00:34:52.606Z,17.60
2018-08-11T00:39:56.636Z,17.30
2018-08-11T00:45:00.560Z,17.20
2018-08-11T00:50:04.991Z,17.00
2018-08-11T00:55:10.519Z,16.90
2018-08-11T01:00:16.368Z,16.70
2018-08-11T01:05:21.057Z,16.60
2018-08-11T01:10:24.559Z,16.60
2018-08-11T01:15:28.051Z,16.50
2018-08-11T01:20:31.705Z,16.70
2018-08-11T01:25:35.243Z,16.80
2018-08-11T01:30:38.831Z,16.90
2018-08-11T01:35:42.324Z,17.00
2018-08-11T01:40:45.736Z,17.20
2018-08-11T01:45:49.320Z,17.30
2018-08-11T01:50:53.053Z,17.40
2018-08-11T02:01:35.801Z,17.80
2018-08-11T02:06:47.093Z,17.80
2018-08-11T02:11:51.936Z,17.80
2018-08-11T02:16:55.392Z,17.90
2018-08-11T02:22:03.593Z,17.90
2018-08-11T02:27:08.267Z,17.90
2018-08-11T02:32:15.833Z,18.00
2018-08-11T02:37:19.387Z,18.10
2018-08-11T02:42:22.940Z,18.10
2018-08-11T02:52:54.107Z,18.20
2018-08-11T02:57:57.805Z,18.30
2018-08-11T03:03:05.768Z,18.20
2018-08-11T03:08:16.799Z,18.20
2018-08-11T03:13:23.254Z,18.30
2018-08-11T03:18:26.668Z,18.20
2018-08-11T03:23:53.353Z,18.30
2018-08-11T03:56:46.515Z,18.00
2018-08-11T04:01:50.088Z,17.90
2018-08-11T04:06:54.450Z,17.80
2018-08-11T04:11:58.236Z,17.80
2018-08-11T04:17:01.829Z,17.70
2018-08-11T04:22:05.657Z,17.70
2018-08-11T04:27:09.113Z,17.70
2018-08-11T04:32:12.657Z,17.80
2018-08-11T04:37:16.796Z,17.80
2018-08-11T04:42:20.361Z,17.70
2018-08-11T04:47:33.744Z,17.80
2018-08-11T04:53:01.412Z,18.00
2018-08-11T04:58:06.660Z,18.10
2018-08-11T05:03:11.200Z,18.10
2018-08-11T05:08:15.751Z,18.10
2018-08-11T05:13:19.160Z,18.10
2018-08-11T05:18:22.558Z,18.10
2018-08-11T05:23:26.169Z,18.10
2018-08-11T05:28:30.556Z,18.30
2018-08-11T05:33:34.713Z,18.40
2018-08-11T05:38:38.360Z,18.20
2018-08-11T05:43:43.810Z,18.20
2018-08-11T05:48:47.527Z,18.60
2018-08-11T05:53:51.071Z,18.80
2018-08-11T05:58:55.322Z,19.00
2018-08-11T06:03:59.633Z,19.30
2018-08-11T06:09:06.850Z,19.40
2018-08-11T06:14:11.409Z,19.60
2018-08-11T06:19:15.123Z,19.60
2018-08-11T06:24:18.782Z,19.60
2018-08-11T06:29:22.291Z,19.80
2018-08-11T06:34:25.849Z,19.90
2018-08-11T06:39:30.559Z,20.00
2018-08-11T06:44:35.039Z,20.00
2018-08-11T06:49:38.762Z,20.10
2018-08-11T06:54:48.158Z,20.20
2018-08-11T06:59:52.620Z,20.30
2018-08-11T07:04:56.217Z,20.30
2018-08-11T07:10:00.056Z,20.10
2018-08-11T07:15:13.183Z,20.40
2018-08-11T07:20:17.281Z,20.40
2018-08-11T07:25:21.839Z,20.30
2018-08-11T07:30:49.536Z,20.30
2018-08-11T07:35:53.581Z,20.50
2018-08-11T07:41:00.472Z,21.10
2018-08-11T07:46:04.506Z,20.90
2018-08-11T07:51:50.618Z,20.90
2018-08-11T08:02:20.648Z,21.10
2018-08-11T08:07:24.343Z,21.10
2018-08-11T08:12:31.887Z,21.40
2018-08-11T08:17:55.902Z,21.70
2018-08-11T08:23:11.139Z,22.20
2018-08-11T08:33:59.126Z,22.70
2018-08-11T08:39:03.431Z,22.80
2018-08-11T08:44:15.049Z,22.70
2018-08-11T08:49:18.416Z,22.90
2018-08-11T08:54:27.680Z,23.30
2018-08-11T08:59:31.105Z,23.90
2018-08-11T09:04:34.549Z,24.30
2018-08-11T09:09:38.074Z,24.70
2018-08-11T09:14:41.587Z,24.70
2018-08-11T09:19:45.019Z,24.80
2018-08-11T09:24:48.587Z,24.30
2018-08-11T09:29:54.569Z,24.60
2018-08-11T09:35:00.193Z,24.80
2018-08-11T09:40:05.694Z,25.20
2018-08-11T09:45:09.215Z,25.60
2018-08-11T09:50:12.893Z,25.80
2018-08-11T09:55:26.296Z,25.70
2018-08-11T10:00:35.056Z,25.50
2018-08-11T10:05:41.835Z,26.00
2018-08-11T10:10:55.618Z,26.20
2018-08-11T10:15:59.015Z,26.30
2018-08-11T10:21:02.455Z,26.30
2018-08-11T10:26:06.200Z,26.30
2018-08-11T10:31:16.595Z,26.20
2018-08-11T10:36:19.980Z,26.30
2018-08-11T10:41:24.472Z,26.60
2018-08-11T10:46:28.020Z,26.90
2018-08-11T10:51:31.730Z,27.70
2018-08-11T10:56:39.368Z,27.40
2018-08-11T11:01:43.142Z,27.80
2018-08-11T11:06:55.248Z,28.00
2018-08-11T11:12:00.579Z,28.10
2018-08-11T11:17:04.389Z,27.50
2018-08-11T11:22:08.164Z,27.10
2018-08-11T11:27:11.670Z,27.10
2018-08-11T11:32:15.136Z,27.50
2018-08-11T11:37:20.638Z,27.30
2018-08-11T11:42:24.193Z,27.50
2018-08-11T11:47:28.214Z,27.50
2018-08-11T11:52:31.764Z,27.40
2018-08-11T11:57:36.499Z,27.70
2018-08-11T12:02:40.044Z,28.00
2018-08-11T12:07:53.118Z,28.30
2018-08-11T12:12:56.643Z,27.60
2018-08-11T12:18:01.217Z,27.50
2018-08-11T12:23:05.791Z,27.80
2018-08-11T12:28:09.603Z,27.90
2018-08-11T12:33:13.183Z,27.60
2018-08-11T12:38:16.788Z,26.90
2018-08-11T12:43:21.173Z,27.00
2018-08-11T12:48:36.154Z,27.60
2018-08-11T12:53:43.352Z,28.10
2018-08-11T12:59:01.989Z,28.40
2018-08-11T13:04:06.573Z,28.10
2018-08-11T13:09:13.735Z,28.30
2018-08-11T13:14:17.525Z,28.50
2018-08-11T13:19:21.549Z,28.90
2018-08-11T13:24:26.642Z,28.20
2018-08-11T13:29:30.426Z,28.20
2018-08-11T13:34:34.802Z,28.40
2018-08-11T13:39:49.024Z,28.10
2018-08-11T13:44:59.780Z,28.20
2018-08-11T14:01:10.847Z,28.90
2018-08-11T14:06:18.136Z,28.50
2018-08-11T14:11:22.611Z,28.00
2018-08-11T14:16:27.360Z,27.70
2018-08-11T14:21:31.087Z,27.50
2018-08-11T14:26:34.694Z,27.70
2018-08-11T14:31:38.247Z,28.00
2018-08-11T14:36:42.089Z,28.30
2018-08-11T14:41:47.795Z,28.80
2018-08-11T14:46:56.607Z,28.80
2018-08-11T14:52:00.618Z,28.90
2018-08-11T14:57:09.051Z,29.00
2018-08-11T15:02:12.855Z,29.10
2018-08-11T15:07:16.415Z,28.70
2018-08-11T15:12:20.986Z,28.80
2018-08-11T15:17:26.320Z,29.30
2018-08-11T15:22:30.090Z,28.90
2018-08-11T15:27:33.793Z,28.90
2018-08-11T15:32:37.554Z,29.10
2018-08-11T15:37:42.674Z,29.50
2018-08-11T15:42:46.347Z,29.20
2018-08-11T15:47:49.951Z,29.20
2018-08-11T15:52:54.510Z,29.50
2018-08-11T15:57:58.353Z,29.60
2018-08-11T16:03:02.140Z,29.30
2018-08-11T16:08:06.209Z,29.00
2018-08-11T16:13:10.306Z,28.80
2018-08-11T16:18:15.444Z,29.10
2018-08-11T16:23:19.108Z,28.70
2018-08-11T16:28:22.782Z,28.40
2018-08-11T16:33:26.518Z,28.20
2018-08-11T16:38:30.249Z,28.00
2018-08-11T16:43:33.758Z,28.40
2018-08-11T16:48:37.324Z,28.80
2018-08-11T16:53:41.948Z,29.00
2018-08-11T16:58:45.594Z,28.50
2018-08-11T17:03:56.739Z,28.00
2018-08-11T17:09:00.315Z,28.60
2018-08-11T17:14:03.927Z,28.90
2018-08-11T17:19:07.622Z,29.30
2018-08-11T17:24:15.371Z,29.30
2018-08-11T17:29:18.911Z,29.00
2018-08-11T17:34:22.723Z,28.30
2018-08-11T17:39:34.465Z,27.80
2018-08-11T17:44:39.281Z,27.30
2018-08-11T17:49:42.909Z,26.60
2018-08-11T17:54:55.318Z,26.40
2018-08-11T18:11:39.510Z,25.80
2018-08-11T18:16:54.152Z,25.60
2018-08-11T18:21:57.992Z,25.40
2018-08-11T18:27:01.944Z,25.20
2018-08-11T18:32:06.002Z,24.90
2018-08-11T18:37:09.618Z,24.70
2018-08-11T18:42:13.320Z,24.40
2018-08-11T18:47:18.669Z,24.10
2018-08-11T18:52:22.403Z,23.70
2018-08-11T18:57:26.873Z,23.40
2018-08-11T19:02:31.266Z,23.10
2018-08-11T19:07:35.049Z,22.80
2018-08-11T19:12:40.301Z,22.40
2018-08-11T19:17:46.024Z,22.10
2018-08-11T19:22:50.918Z,21.80
2018-08-11T19:27:55.571Z,21.70
2018-08-11T19:33:00.544Z,21.50
2018-08-11T19:38:05.719Z,21.30
2018-08-11T19:43:10.278Z,21.00
2018-08-11T19:48:14.040Z,20.80
2018-08-11T19:53:17.677Z,20.60
2018-08-11T19:58:21.402Z,20.40
2018-08-11T20:03:25.825Z,20.30
2018-08-11T20:08:29.759Z,20.10
2018-08-11T20:13:33.538Z,19.90
2018-08-11T20:18:37.031Z,19.80
2018-08-11T20:23:41.460Z,19.60
2018-08-11T20:28:48.505Z,19.30
2018-08-11T20:33:54.538Z,19.20
2018-08-11T20:38:59.179Z,19.00
2018-08-11T20:44:04.794Z,18.90
2018-08-11T20:49:08.331Z,18.70
2018-08-11T20:54:15.321Z,18.50
2018-08-11T20:59:25.022Z,18.40
2018-08-11T21:04:29.937Z,18.40
2018-08-11T21:15:02.817Z,18.10
2018-08-11T21:20:09.304Z,17.80
2018-08-11T21:35:58.417Z,17.50
2018-08-11T21:41:02.378Z,17.30
2018-08-11T21:46:06.202Z,17.30
2018-08-11T21:51:09.904Z,17.40
2018-08-11T21:56:13.525Z,17.30
2018-08-11T22:01:17.137Z,17.30
2018-08-11T22:06:21.915Z,17.20
2018-08-11T22:11:25.906Z,17.10
2018-08-11T22:16:35.633Z,16.90
2018-08-11T22:21:42.457Z,16.70
2018-08-11T22:26:47.101Z,16.60
2018-08-11T22:31:50.562Z,16.40
2018-08-11T22:36:54.268Z,16.40
2018-08-11T22:41:58.821Z,16.50
2018-08-11T22:47:05.700Z,16.30
2018-08-11T22:52:09.238Z,16.20
2018-08-11T22:57:12.892Z,16.10
2018-08-11T23:02:16.421Z,15.90
2018-08-11T23:07:19.966Z,15.90
2018-08-11T23:12:23.487Z,16.00
2018-08-11T23:17:27.040Z,15.90
2018-08-11T23:22:31.548Z,15.90
2018-08-11T23:27:36.932Z,15.80
2018-08-11T23:32:42.016Z,15.40
2018-08-11T23:37:49.830Z,15.50
2018-08-11T23:42:54.458Z,15.50
2018-08-11T23:48:00.175Z,15.50
2018-08-11T23:53:03.789Z,15.50
2018-08-11T23:58:08.413Z,15.40
